createdAt,value
2019-02-05T00:04:30.175Z,18.37
2019-02-05T00:09:32.287Z,18.70
2019-02-05T00:14:33.412Z,19.17
2019-02-05T00:19:34.520Z,17.73
2019-02-05T00:24:35.623Z,17.70
2019-02-05T00:29:36.757Z,17.17
2019-02-05T00:34:37.863Z,17.93
2019-02-05T00:39:38.964Z,17.17
2019-02-05T00:44:40.074Z,16.43
2019-02-05T00:49:41.171Z,15.57
2019-02-05T00:54:42.272Z,14.90
2019-02-05T00:59:43.367Z,14.93
2019-02-05T01:04:44.559Z,14.63
2019-02-05T01:09:46.054Z,15.00
2019-02-05T01:14:47.143Z,14.40
2019-02-05T01:19:48.444Z,14.17
2019-02-05T01:24:49.539Z,17.47
2019-02-05T01:29:50.660Z,14.97
2019-02-05T01:34:51.776Z,15.67
2019-02-05T01:39:53.073Z,15.13
2019-02-05T01:44:54.187Z,14.03
2019-02-05T01:49:55.383Z,14.30
2019-02-05T01:54:56.467Z,15.10
2019-02-05T01:59:57.676Z,14.80
2019-02-05T02:04:58.779Z,17.50
2019-02-05T02:09:59.867Z,19.60
2019-02-05T02:15:01.066Z,17.57
2019-02-05T02:20:05.878Z,14.73
2019-02-05T02:25:09.159Z,15.17
2019-02-05T02:30:19.383Z,14.83
2019-02-05T02:35:20.595Z,14.33
2019-02-05T02:40:22.120Z,14.07
2019-02-05T02:45:23.286Z,14.07
2019-02-05T02:50:24.397Z,12.70
2019-02-05T02:55:25.576Z,12.70
2019-02-05T03:00:26.874Z,12.47
2019-02-05T03:05:28.067Z,12.13
2019-02-05T03:10:29.559Z,12.37
2019-02-05T03:15:30.765Z,11.80
2019-02-05T03:20:31.961Z,12.50
2019-02-05T03:25:33.167Z,12.80
2019-02-05T03:30:34.369Z,13.03
2019-02-05T03:35:35.560Z,12.20
2019-02-05T03:40:59.072Z,12.13
2019-02-05T03:46:01.173Z,13.90
2019-02-05T03:51:20.893Z,13.20
2019-02-05T03:56:45.478Z,13.00
2019-02-05T04:02:05.796Z,14.97
2019-02-05T04:07:36.387Z,14.33
2019-02-05T04:13:12.002Z,14.13
2019-02-05T04:18:35.159Z,14.90
2019-02-05T04:23:59.732Z,14.17
2019-02-05T04:29:07.632Z,13.30
2019-02-05T04:34:33.781Z,11.90
2019-02-05T04:39:51.149Z,13.50
2019-02-05T04:45:33.447Z,15.40
2019-02-05T04:51:01.671Z,12.50
2019-02-05T04:56:09.624Z,12.47
2019-02-05T05:01:37.663Z,13.30
2019-02-05T05:06:58.035Z,12.23
2019-02-05T05:11:59.139Z,12.00
2019-02-05T05:17:00.649Z,11.07
2019-02-05T05:22:03.786Z,11.93
2019-02-05T05:27:05.194Z,11.90
2019-02-05T05:32:06.799Z,11.80
2019-02-05T05:37:07.705Z,12.53
2019-02-05T05:42:08.830Z,12.03
2019-02-05T05:47:10.250Z,12.00
2019-02-05T05:52:11.529Z,11.67
2019-02-05T05:57:12.719Z,10.93
2019-02-05T06:02:13.819Z,11.87
2019-02-05T06:07:14.915Z,11.53
2019-02-05T06:12:16.127Z,11.23
2019-02-05T06:17:17.930Z,10.37
2019-02-05T06:22:19.010Z,11.77
2019-02-05T06:27:20.134Z,10.93
2019-02-05T06:32:21.620Z,10.03
2019-02-05T06:37:22.712Z,10.93
2019-02-05T06:42:26.214Z,11.27
2019-02-05T06:47:27.342Z,11.73
2019-02-05T06:52:28.538Z,11.80
2019-02-05T06:57:29.643Z,12.07
2019-02-05T07:02:30.854Z,12.67
2019-02-05T07:07:31.940Z,12.80
2019-02-05T07:12:33.037Z,12.27
2019-02-05T07:17:34.129Z,12.23
2019-02-05T07:22:35.643Z,17.07
2019-02-05T07:27:36.859Z,13.13
2019-02-05T07:32:37.947Z,11.20
2019-02-05T07:37:39.379Z,13.13
2019-02-05T07:42:40.616Z,12.10
2019-02-05T07:47:42.204Z,12.00
2019-02-05T07:52:43.894Z,12.73
2019-02-05T07:57:45.110Z,13.57
2019-02-05T08:02:46.712Z,13.93
2019-02-05T08:07:48.399Z,15.13
2019-02-05T08:12:49.852Z,16.47
2019-02-05T08:17:51.160Z,13.60
2019-02-05T08:22:52.370Z,11.77
2019-02-05T08:27:53.764Z,10.83
2019-02-05T08:32:55.251Z,10.57
2019-02-05T08:37:56.365Z,10.70
2019-02-05T08:42:57.579Z,13.07
2019-02-05T08:47:59.166Z,12.77
2019-02-05T08:53:00.267Z,12.70
2019-02-05T08:58:04.463Z,13.57
2019-02-05T09:03:07.762Z,12.90
2019-02-05T09:08:09.250Z,12.03
2019-02-05T09:13:10.342Z,11.00
2019-02-05T09:18:11.631Z,14.03
2019-02-05T09:23:14.361Z,13.47
2019-02-05T09:28:15.794Z,11.03
2019-02-05T09:33:17.092Z,11.70
2019-02-05T09:38:18.280Z,12.40
2019-02-05T09:43:19.728Z,12.53
2019-02-05T09:48:20.831Z,13.57
2019-02-05T09:53:21.931Z,12.83
2019-02-05T09:58:23.131Z,13.03
2019-02-05T10:03:24.328Z,12.80
2019-02-05T10:08:25.534Z,13.67
2019-02-05T10:13:26.716Z,13.20
2019-02-05T10:18:27.907Z,12.27
2019-02-05T10:23:29.212Z,12.90
2019-02-05T10:28:30.400Z,13.67
2019-02-05T10:33:31.515Z,12.50
2019-02-05T10:38:32.633Z,12.30
2019-02-05T10:43:33.947Z,12.60
2019-02-05T10:48:35.239Z,13.30
2019-02-05T10:53:36.552Z,12.27
2019-02-05T10:58:37.751Z,14.17
2019-02-05T11:03:38.944Z,13.80
2019-02-05T11:08:40.161Z,14.47
2019-02-05T11:13:41.351Z,13.17
2019-02-05T11:18:42.450Z,13.93
2019-02-05T11:23:43.635Z,14.33
2019-02-05T11:28:44.731Z,13.47
2019-02-05T11:33:45.902Z,14.27
2019-02-05T11:38:47.023Z,14.13
2019-02-05T11:43:48.561Z,13.90
2019-02-05T11:48:49.736Z,13.37
2019-02-05T11:53:51.060Z,12.93
2019-02-05T11:58:52.547Z,13.50
2019-02-05T12:03:53.651Z,11.70
2019-02-05T12:08:54.872Z,12.30
2019-02-05T12:13:56.367Z,12.17
2019-02-05T12:18:57.556Z,12.07
2019-02-05T12:23:58.863Z,11.83
2019-02-05T12:29:00.472Z,11.07
2019-02-05T12:34:01.679Z,12.07
2019-02-05T12:39:06.563Z,10.73
2019-02-05T12:44:07.893Z,10.40
2019-02-05T12:49:09.089Z,10.30
2019-02-05T12:54:10.191Z,10.67
2019-02-05T12:59:11.286Z,12.17
2019-02-05T13:04:12.392Z,11.13
2019-02-05T13:09:13.704Z,12.47
2019-02-05T13:14:14.828Z,14.93
2019-02-05T13:19:16.023Z,13.93
2019-02-05T13:24:17.129Z,11.87
2019-02-05T13:29:18.464Z,12.20
2019-02-05T13:34:19.696Z,14.23
2019-02-05T13:39:20.827Z,12.60
2019-02-05T13:44:21.956Z,12.60
2019-02-05T13:49:23.095Z,12.07
2019-02-05T13:54:24.187Z,11.60
2019-02-05T13:59:25.300Z,12.30
2019-02-05T14:04:26.487Z,12.40
2019-02-05T14:09:27.574Z,11.43
2019-02-05T14:14:28.678Z,11.97
2019-02-05T14:19:30.195Z,11.10
2019-02-05T14:24:31.284Z,12.03
2019-02-05T14:29:32.381Z,10.90
2019-02-05T14:34:33.476Z,10.67
2019-02-05T14:39:34.567Z,10.13
2019-02-05T14:44:35.704Z,10.73
2019-02-05T14:49:36.803Z,11.10
2019-02-05T14:54:37.891Z,10.57
2019-02-05T14:59:39.099Z,10.60
2019-02-05T15:04:40.187Z,11.70
2019-02-05T15:09:41.271Z,10.93
2019-02-05T15:14:42.370Z,11.53
2019-02-05T15:19:43.580Z,10.73
2019-02-05T15:24:44.770Z,10.93
2019-02-05T15:29:45.871Z,10.93
2019-02-05T15:34:47.103Z,12.27
2019-02-05T15:39:48.261Z,12.13
2019-02-05T15:44:49.377Z,12.20
2019-02-05T15:49:50.469Z,14.10
2019-02-05T15:54:51.868Z,14.60
2019-02-05T15:59:53.059Z,14.33
2019-02-05T16:04:54.154Z,15.63
2019-02-05T16:09:55.273Z,15.07
2019-02-05T16:14:56.352Z,15.90
2019-02-05T16:19:57.459Z,16.70
2019-02-05T16:24:58.636Z,15.87
2019-02-05T16:29:59.751Z,15.97
2019-02-05T16:35:01.274Z,18.00
2019-02-05T16:40:09.151Z,18.97
2019-02-05T16:45:16.065Z,18.47
2019-02-05T16:50:20.513Z,17.40
2019-02-05T16:55:21.942Z,17.80
2019-02-05T17:00:26.565Z,15.50
2019-02-05T17:05:28.883Z,16.83
2019-02-05T17:10:30.142Z,16.40
2019-02-05T17:15:31.420Z,17.17
2019-02-05T17:20:34.051Z,17.53
2019-02-05T17:25:36.173Z,17.60
2019-02-05T17:30:39.384Z,16.97
2019-02-05T17:35:40.890Z,17.17
2019-02-05T17:40:42.083Z,16.30
2019-02-05T17:45:43.746Z,21.13
2019-02-05T17:50:44.961Z,19.83
2019-02-05T17:55:46.386Z,17.83
2019-02-05T18:00:49.805Z,19.93
2019-02-05T18:05:51.887Z,20.90
2019-02-05T18:10:53.458Z,20.60
2019-02-05T18:15:55.675Z,21.50
2019-02-05T18:20:57.204Z,20.73
2019-02-05T18:25:59.019Z,20.47
2019-02-05T18:31:00.444Z,20.03
2019-02-05T18:36:01.764Z,21.53
2019-02-05T18:41:03.524Z,21.27
2019-02-05T18:46:05.201Z,20.40
2019-02-05T18:51:06.367Z,22.67
2019-02-05T18:56:08.057Z,20.13
2019-02-05T19:01:09.473Z,21.03
2019-02-05T19:06:10.916Z,20.60
2019-02-05T19:11:12.139Z,20.90
2019-02-05T19:16:13.672Z,23.80
2019-02-05T19:21:15.047Z,24.10
2019-02-05T19:26:17.214Z,23.40
2019-02-05T19:31:23.190Z,24.87
2019-02-05T19:36:24.397Z,22.07
2019-02-05T19:41:26.290Z,22.60
2019-02-05T19:46:38.661Z,20.60
2019-02-05T19:51:40.021Z,19.60
2019-02-05T19:56:41.867Z,21.67
2019-02-05T20:01:43.691Z,22.03
2019-02-05T20:06:45.177Z,20.53
2019-02-05T20:11:47.298Z,22.00
2019-02-05T20:16:48.729Z,22.93
2019-02-05T20:21:55.443Z,18.37
2019-02-05T20:26:56.819Z,17.90
2019-02-05T20:31:58.101Z,16.57
2019-02-05T20:36:59.592Z,16.13
2019-02-05T20:42:00.884Z,17.20
2019-02-05T20:47:02.074Z,16.30
2019-02-05T20:52:03.786Z,15.60
2019-02-05T20:57:04.907Z,16.07
2019-02-05T21:02:06.534Z,16.90
2019-02-05T21:07:07.809Z,15.77
2019-02-05T21:12:09.110Z,17.00
2019-02-05T21:17:10.228Z,16.47
2019-02-05T21:22:11.373Z,17.63
2019-02-05T21:27:12.479Z,18.53
2019-02-05T21:32:13.609Z,18.10
2019-02-05T21:37:14.859Z,15.93
2019-02-05T21:42:16.033Z,13.67
2019-02-05T21:47:17.455Z,15.43
2019-02-05T21:52:18.581Z,23.33
2019-02-05T21:57:19.786Z,31.17
2019-02-05T22:02:20.893Z,32.33
2019-02-05T22:07:22.225Z,26.87
2019-02-05T22:12:23.418Z,25.50
2019-02-05T22:17:24.663Z,25.77
2019-02-05T22:22:25.763Z,23.90
2019-02-05T22:27:26.976Z,25.97
2019-02-05T22:32:28.239Z,23.20
2019-02-05T22:37:29.487Z,21.93
2019-02-05T22:42:30.714Z,20.20
2019-02-05T22:47:32.130Z,19.00
2019-02-05T22:52:33.222Z,17.73
2019-02-05T22:57:34.924Z,14.87
2019-02-05T23:02:38.966Z,14.27
2019-02-05T23:07:39.531Z,14.73
2019-02-05T23:12:41.326Z,11.37
2019-02-05T23:17:42.647Z,9.83
2019-02-05T23:22:43.728Z,10.37
2019-02-05T23:27:44.946Z,10.67
2019-02-05T23:32:46.040Z,9.57
2019-02-05T23:37:47.368Z,9.47
2019-02-05T23:42:48.759Z,11.20
2019-02-05T23:47:49.891Z,10.37
2019-02-05T23:52:50.982Z,9.13
2019-02-05T23:57:52.175Z,9.23
